createdAt,value
2023-03-12T00:02:32.578Z,99576.19
2023-03-12T00:07:36.222Z,99579.16
2023-03-12T00:12:37.606Z,99584.34
2023-03-12T00:17:38.983Z,99583.06
2023-03-12T00:22:40.361Z,99586.63
2023-03-12T00:27:42.033Z,99585.41
2023-03-12T00:32:43.544Z,99589.75
2023-03-12T00:37:44.971Z,99594.50
2023-03-12T00:42:46.349Z,99586.63
2023-03-12T00:47:47.740Z,99587.66
2023-03-12T00:52:49.178Z,99591.09
2023-03-12T00:57:50.597Z,99590.38
2023-03-12T01:02:52.044Z,99597.84
2023-03-12T01:07:53.444Z,99580.84
2023-03-12T01:12:54.850Z,99588.16
2023-03-12T01:17:56.217Z,99591.47
2023-03-12T01:22:57.601Z,99599.16
2023-03-12T01:27:58.978Z,99595.00
2023-03-12T01:33:00.362Z,99596.56
2023-03-12T01:38:02.269Z,99592.56
2023-03-12T01:43:29.336Z,99590.75
2023-03-12T01:48:34.055Z,99592.38
2023-03-12T01:53:35.435Z,99602.84
2023-03-12T01:58:37.447Z,99609.50
2023-03-12T02:03:38.842Z,99604.69
2023-03-12T02:08:42.381Z,99594.25
2023-03-12T02:13:43.795Z,99601.25
2023-03-12T02:18:45.163Z,99597.69
2023-03-12T02:24:05.290Z,99596.69
2023-03-12T02:29:07.053Z,99590.19
2023-03-12T02:34:09.152Z,99604.63
2023-03-12T02:39:11.764Z,99604.16
2023-03-12T02:44:19.944Z,99616.00
2023-03-12T02:49:22.463Z,99609.78
2023-03-12T02:54:23.860Z,99620.75
2023-03-12T02:59:26.509Z,99615.25
2023-03-12T03:04:28.600Z,99627.50
2023-03-12T03:09:30.052Z,99627.06
2023-03-12T03:14:31.422Z,99615.81
2023-03-12T03:19:32.806Z,99625.78
2023-03-12T03:24:36.002Z,99636.28
2023-03-12T03:29:37.384Z,99651.66
2023-03-12T03:34:39.070Z,99654.34
2023-03-12T03:39:40.446Z,99662.16
2023-03-12T03:44:41.863Z,99669.91
2023-03-12T03:49:43.294Z,99673.03
2023-03-12T03:54:44.858Z,99671.34
2023-03-12T03:59:46.253Z,99679.94
2023-03-12T04:04:47.655Z,99664.38
2023-03-12T04:09:49.367Z,99661.44
2023-03-12T04:14:50.736Z,99660.38
2023-03-12T04:19:52.121Z,99660.88
2023-03-12T04:24:53.513Z,99662.22
2023-03-12T04:29:54.930Z,99673.75
2023-03-12T04:34:56.387Z,99670.53
2023-03-12T04:39:57.785Z,99667.91
2023-03-12T04:44:59.161Z,99678.94
2023-03-12T04:50:00.545Z,99684.47
2023-03-12T04:55:02.075Z,99682.28
2023-03-12T05:00:09.917Z,99684.31
2023-03-12T05:05:11.314Z,99692.59
2023-03-12T05:10:12.724Z,99704.16
2023-03-12T05:15:14.122Z,99704.75
2023-03-12T05:20:15.515Z,99701.81
2023-03-12T05:25:16.933Z,99703.44
2023-03-12T05:30:18.939Z,99704.75
2023-03-12T05:35:20.347Z,99711.53
2023-03-12T05:40:21.744Z,99709.50
2023-03-12T05:45:23.116Z,99702.03
2023-03-12T05:50:24.685Z,99709.28
2023-03-12T05:55:26.053Z,99706.31
2023-03-12T06:00:27.629Z,99708.41
2023-03-12T06:05:29.029Z,99702.94
2023-03-12T06:10:30.420Z,99697.06
2023-03-12T06:15:31.834Z,99707.41
2023-03-12T06:20:33.207Z,99701.31
2023-03-12T06:25:34.586Z,99702.69
2023-03-12T06:30:35.979Z,99713.47
2023-03-12T06:35:37.409Z,99707.41
2023-03-12T06:40:38.823Z,99699.06
2023-03-12T06:45:40.209Z,99708.66
2023-03-12T06:50:41.576Z,99709.06
2023-03-12T06:55:43.921Z,99709.91
2023-03-12T07:00:45.327Z,99706.50
2023-03-12T07:05:47.609Z,99705.66
2023-03-12T07:10:49.010Z,99704.09
2023-03-12T07:15:50.453Z,99707.41
2023-03-12T07:20:51.927Z,99701.31
2023-03-12T07:25:53.330Z,99705.66
2023-03-12T07:31:00.215Z,99712.34
2023-03-12T07:36:01.765Z,99718.94
2023-03-12T07:41:03.373Z,99713.13
2023-03-12T07:46:04.889Z,99712.28
2023-03-12T07:51:06.389Z,99719.56
2023-03-12T07:56:08.041Z,99719.00
2023-03-12T08:01:09.639Z,99720.44
2023-03-12T08:06:11.172Z,99726.19
2023-03-12T08:11:12.590Z,99730.66
2023-03-12T08:16:14.643Z,99724.69
2023-03-12T08:21:16.657Z,99721.66
2023-03-12T08:26:18.103Z,99727.03
2023-03-12T08:31:19.689Z,99723.28
2023-03-12T08:36:22.461Z,99735.94
2023-03-12T08:41:24.186Z,99731.25
2023-03-12T08:46:25.591Z,99728.94
2023-03-12T08:51:26.976Z,99723.56
2023-03-12T08:56:28.380Z,99729.41
2023-03-12T09:01:29.763Z,99724.47
2023-03-12T09:06:31.144Z,99719.50
2023-03-12T09:11:33.025Z,99717.81
2023-03-12T09:16:34.455Z,99720.13
2023-03-12T09:21:35.846Z,99718.47
2023-03-12T09:26:37.216Z,99709.63
2023-03-12T09:31:38.625Z,99707.16
2023-03-12T09:36:40.021Z,99699.28
2023-03-12T09:41:41.647Z,99693.38
2023-03-12T09:47:00.899Z,99689.66
2023-03-12T09:52:04.000Z,99694.22
2023-03-12T09:57:11.126Z,99703.09
2023-03-12T10:02:57.717Z,99686.00
2023-03-12T10:08:26.768Z,99679.94
2023-03-12T10:13:43.857Z,99672.38
2023-03-12T10:19:07.032Z,99676.25
2023-03-12T10:24:33.829Z,99675.81
2023-03-12T10:29:36.591Z,99672.75
2023-03-12T10:34:41.041Z,99657.13
2023-03-12T10:39:42.615Z,99642.41
2023-03-12T10:44:44.628Z,99644.91
2023-03-12T10:49:50.313Z,99640.34
2023-03-12T10:54:52.354Z,99635.31
2023-03-12T10:59:53.756Z,99631.69
2023-03-12T11:04:55.139Z,99630.94
2023-03-12T11:10:08.473Z,99626.09
2023-03-12T11:15:38.892Z,99618.97
2023-03-12T11:20:40.448Z,99612.06
2023-03-12T11:25:41.848Z,99609.31
2023-03-12T11:30:43.314Z,99596.59
2023-03-12T11:36:04.317Z,99599.03
2023-03-12T11:41:27.772Z,99597.06
2023-03-12T11:46:36.166Z,99581.63
2023-03-12T11:52:09.927Z,99561.72
2023-03-12T11:57:38.781Z,99549.00
2023-03-12T12:03:00.440Z,99534.50
2023-03-12T12:08:10.536Z,99509.53
2023-03-12T12:13:32.855Z,99503.25
2023-03-12T12:18:58.524Z,99514.81
2023-03-12T12:24:11.861Z,99510.22
2023-03-12T12:29:48.864Z,99487.75
2023-03-12T12:35:05.708Z,99488.50
2023-03-12T12:40:20.381Z,99469.69
2023-03-12T12:45:21.834Z,99457.16
2023-03-12T12:50:25.992Z,99451.66
2023-03-12T12:55:44.349Z,99456.81
2023-03-12T13:00:46.758Z,99445.84
2023-03-12T13:05:55.007Z,99445.13
2023-03-12T13:11:02.169Z,99436.97
2023-03-12T13:16:34.012Z,99449.22
2023-03-12T13:21:40.437Z,99440.13
2023-03-12T13:27:24.434Z,99442.34
2023-03-12T13:32:34.808Z,99441.88
2023-03-12T13:37:51.046Z,99434.75
2023-03-12T13:43:11.652Z,99428.09
2023-03-12T13:48:15.320Z,99439.00
2023-03-12T13:53:17.000Z,99434.44
2023-03-12T13:58:23.144Z,99435.59
2023-03-12T14:03:27.332Z,99437.69
2023-03-12T14:08:50.373Z,99443.91
2023-03-12T14:14:27.069Z,99444.78
2023-03-12T14:19:29.848Z,99433.91
2023-03-12T14:24:32.376Z,99425.47
2023-03-12T14:29:44.847Z,99437.97
2023-03-12T14:34:53.945Z,99415.75
2023-03-12T14:40:04.107Z,99430.06
2023-03-12T14:45:13.825Z,99430.13
2023-03-12T14:50:21.363Z,99428.44
2023-03-12T14:55:24.284Z,99423.78
2023-03-12T15:00:27.124Z,99412.22
2023-03-12T15:05:28.548Z,99404.88
2023-03-12T15:10:30.722Z,99406.06
2023-03-12T15:15:41.274Z,99390.78
2023-03-12T15:20:42.651Z,99380.53
2023-03-12T15:25:44.886Z,99385.19
2023-03-12T15:30:46.343Z,99380.63
2023-03-12T15:36:18.843Z,99348.34
2023-03-12T15:41:35.828Z,99324.53
2023-03-12T15:46:37.311Z,99322.03
2023-03-12T15:51:40.404Z,99319.63
2023-03-12T15:56:41.795Z,99326.75
2023-03-12T16:01:47.144Z,99323.72
2023-03-12T16:06:49.040Z,99320.94
2023-03-12T16:11:50.430Z,99318.25
2023-03-12T16:16:51.924Z,99301.34
2023-03-12T16:21:53.611Z,99313.94
2023-03-12T16:26:56.571Z,99304.56
2023-03-12T16:31:57.989Z,99310.56
2023-03-12T16:36:59.401Z,99307.31
2023-03-12T16:42:00.883Z,99305.72
2023-03-12T16:47:02.250Z,99299.09
2023-03-12T16:52:17.555Z,99303.19
2023-03-12T16:57:35.963Z,99307.59
2023-03-12T17:02:37.413Z,99290.69
2023-03-12T17:07:38.820Z,99303.75
2023-03-12T17:12:40.264Z,99301.28
2023-03-12T17:17:41.631Z,99289.25
2023-03-12T17:22:43.035Z,99297.75
2023-03-12T17:27:44.572Z,99295.63
2023-03-12T17:32:45.977Z,99304.03
2023-03-12T17:37:50.877Z,99320.94
2023-03-12T17:42:52.257Z,99307.84
2023-03-12T17:47:53.648Z,99302.16
2023-03-12T17:52:55.040Z,99297.78
2023-03-12T17:57:56.425Z,99290.88
2023-03-12T18:02:57.829Z,99317.91
2023-03-12T18:07:59.239Z,99295.56
2023-03-12T18:13:00.635Z,99294.78
2023-03-12T18:18:02.034Z,99293.66
2023-03-12T18:23:03.408Z,99295.81
2023-03-12T18:28:04.885Z,99297.44
2023-03-12T18:33:06.309Z,99307.31
2023-03-12T18:38:07.718Z,99310.66
2023-03-12T18:43:09.114Z,99298.78
2023-03-12T18:48:10.493Z,99299.31
2023-03-12T18:53:11.882Z,99290.91
2023-03-12T18:58:13.280Z,99292.31
2023-03-12T19:03:14.745Z,99295.88
2023-03-12T19:08:16.319Z,99308.38
2023-03-12T19:13:17.683Z,99307.28
2023-03-12T19:18:19.052Z,99338.75
2023-03-12T19:23:20.461Z,99313.09
2023-03-12T19:28:21.878Z,99307.31
2023-03-12T19:33:23.273Z,99313.00
2023-03-12T19:38:24.831Z,99299.66
2023-03-12T19:43:26.272Z,99304.88
2023-03-12T19:48:27.690Z,99298.06
2023-03-12T19:53:29.076Z,99313.91
2023-03-12T19:58:30.484Z,99320.44
2023-03-12T20:03:32.799Z,99325.88
2023-03-12T20:08:34.318Z,99338.75
2023-03-12T20:13:37.809Z,99343.16
2023-03-12T20:18:39.176Z,99331.91
2023-03-12T20:23:40.560Z,99336.22
2023-03-12T20:28:41.962Z,99349.38
2023-03-12T20:33:43.351Z,99352.97
2023-03-12T20:38:47.514Z,99333.63
2023-03-12T20:43:48.891Z,99330.22
2023-03-12T20:48:50.310Z,99335.16
2023-03-12T20:53:51.811Z,99341.75
2023-03-12T20:58:53.918Z,99342.59
2023-03-12T21:03:58.391Z,99338.50
2023-03-12T21:08:59.819Z,99335.16
2023-03-12T21:14:01.237Z,99343.34
2023-03-12T21:19:02.610Z,99338.44
2023-03-12T21:24:04.272Z,99343.69
2023-03-12T21:29:05.700Z,99344.50
2023-03-12T21:34:09.385Z,99329.16
2023-03-12T21:39:11.702Z,99322.00
2023-03-12T21:44:15.359Z,99320.69
2023-03-12T21:49:18.014Z,99314.16
2023-03-12T21:54:19.524Z,99312.78
2023-03-12T21:59:20.937Z,99298.03
2023-03-12T22:04:22.457Z,99291.72
2023-03-12T22:09:23.907Z,99290.63
2023-03-12T22:14:25.319Z,99292.59
2023-03-12T22:19:26.739Z,99300.78
2023-03-12T22:24:28.127Z,99294.69
2023-03-12T22:29:29.502Z,99295.50
2023-03-12T22:34:30.870Z,99293.09
2023-03-12T22:39:32.346Z,99281.94
2023-03-12T22:44:33.724Z,99274.00
2023-03-12T22:49:35.109Z,99269.06
2023-03-12T22:54:36.505Z,99274.19
2023-03-12T22:59:38.169Z,99274.50
2023-03-12T23:04:39.725Z,99268.81
2023-03-12T23:09:41.265Z,99274.81
2023-03-12T23:14:42.632Z,99278.06
2023-03-12T23:19:44.126Z,99272.28
2023-03-12T23:24:45.527Z,99273.44
2023-03-12T23:29:46.891Z,99273.44
2023-03-12T23:34:48.270Z,99271.78
2023-03-12T23:39:54.866Z,99271.50
2023-03-12T23:44:56.589Z,99264.06
2023-03-12T23:49:57.971Z,99265.75
2023-03-12T23:54:59.387Z,99260.84
